Indian Trail, NC (28079)

8:58 PM EST on January 21, 2017 (GMT -0500)
Brandon Oaks Subdivision | | Change Station

Elev 656 ft 35.05 °N, 80.67 °W | Updated 20 seconds ago

Overcast
Overcast
56.0 °F
Feels Like 56.0 °F
N
0.0
Wind Variable Wind from NNE

Today
High -- | Low -- °F
--% Chance of Precip.
Yesterday
High -- | Low -- °F
Precip. -- in
Pressure 29.67 in
Visibility 0.5 miles
Clouds
Dew Point 55 °F
Humidity 98%
Rainfall 0.89 in
Snow Depth Not available.
7:28 AM 5:40 PM
Waning Crescent, 30% visible
METAR KEQY 220153Z AUTO 35003KT 1/2SM FG VV002 13/13 A2964 RMK AO2 SLP046 T01330128
Pressure 29.67 in
Visibility 0.5 miles
Clouds
Dew Point 55 °F
Humidity 98%
Rainfall 0.89 in
Snow Depth Not available.
7:28 AM 5:40 PM
Waning Crescent, 30% visible
METAR KEQY 220153Z AUTO 35003KT 1/2SM FG VV002 13/13 A2964 RMK AO2 SLP046 T01330128

Get Your Daily Forecast Email!

Thanks for signing up!

Be on the lookout for a verification email in your inbox.

You'll start receiving the daily forecast at 8 AM.

×

10-Day Weather Forecast

Almanac

Astronomy

Jan. 21, 2017 Rise Set
Actual Time
Civil Twilight
Nautical Twilight
Astronomical Twilight
Moon
Length of Visible Light
Length of Day
Tomorrow will be .
, % of the Moon is Illuminated

Today's Extremes

State Highs State Lows

Community

WunderPhotos

Upload Photos

1,962,540 photos uploaded!

WunderBlog® & News

Nearby

Air Quality

  Air Quality AQ Index Pollutant
Not available.

Snow Depth

Station Depth Elevation

Earthquake Activity

City Distance Mag. Time & Date
Minimum magnitude displayed is 2.5.

Coastal Water Temperatures

Place Temperature

Stations

Nearby Weather Stations

Station Location Temp. Windchill Dew Point Humidity Wind Precip. Elev Updated Type
                   

Watches & Warnings

There are currently no watches in effect.